Florahome, FL (32140)

12:38 PM EDT on July 02, 2015 (GMT -0400)
George's Lake #1 | | Change Station
CLOSE
Current Station
Personal Weather Station
Location: Florahome, FL
Elevation: 105 ft
Nearby Weather Stations

Elev 105 ft 29.80 °N, 81.85 °W | Updated 8 minutes ago

Partly Cloudy
Partly Cloudy
89.5 °F
Feels Like 100 °F
N
1.0
Wind Variable Wind from NNE
Gusts 10.0 mph

Today
High -- | Low -- °F
--% Chance of Precip.
Yesterday
High -- | Low -- °F
Precip. -- in
6:30 AM 8:32 PM
Full, 100% visible
Pressure 30.11 in
Visibility 3.0 miles
Clouds Few 400 ft
Scattered Clouds 3400 ft
Mostly Cloudy 6000 ft
Heat Index 100 °F
Dew Point 75 °F
Humidity 63%
Rainfall 0.00 in
Snow Depth Not available.
UV 8 out of 12
Pollen 2.30 out of 12
Air Quality Not available.
Flu Activity Not available.
METAR K42J 021635Z AUTO 27006KT 3SM FEW004 SCT034 BKN060 30/23 A3011 RMK AO1 P0001 TSNO

More Conditions Fewer Conditions

Pressure 30.11 in
Visibility 3.0 miles
Clouds Few 400 ft
Scattered Clouds 3400 ft
Mostly Cloudy 6000 ft
Heat Index 100 °F
Dew Point 75 °F
Humidity 63%
Rainfall 0.00 in
Snow Depth Not available.
UV 8 out of 12
Pollen 2.30 out of 12
Air Quality Not available.
Flu Activity Not available.
METAR K42J 021635Z AUTO 27006KT 3SM FEW004 SCT034 BKN060 30/23 A3011 RMK AO1 P0001 TSNO

More Conditions Fewer Conditions

10-Day Weather Forecast

×

Almanac

Astronomy

Jul. 02, 2015 Rise Set
Actual Time
Civil Twilight
Nautical Twilight
Astronomical Twilight
Moon
Length of Visible Light
Length of Day
Tomorrow will be .
, % of the Moon is Illuminated

Today's Extremes

State Highs State Lows

Community

WunderPhotos

Upload Photos

1,834,496 photos uploaded!

WunderBlogs® & News

Nearby

Air Quality

  Air Quality AQ Index Pollutant
Not available.

Snow Depth

Station Depth Elevation

Earthquake Activity

City Distance Mag. Time & Date
Minimum magnitude displayed is 2.5.

Coastal Water Temperatures

Place Temperature

Stations

Nearby Weather Stations

Station Location Temp. Windchill Dew Point Humidity Wind Precip. Elev Updated Type